KIFP

Laughlin / Bullhead International Airport

Bullhead City, Arizona, USA
METAR KIFP 190255Z AUTO 16007KT 10SM CLR 36/M13 A2966 RMK AO2
Observed Flight Rules
Sep-19 @ 02:55 UTC (22 minutes ago) Visual Flight Rules
Wind Visibility Clouds
160° at 7 knots 10 miles
  • Clear skies
Temperatures Readings
Current 36°C / 97°F
Dewpoint -13°C / 9°F
Humidity 4%
Altimeter 29.66" Hg
Pressure 1004 hPa
Elevation 212
METAR KIFP 190255Z AUTO 16007KT 10SM CLR 36/M13 A2966 RMK AO2
Observed Flight Rules
Sep-19 @ 02:55 UTC
(22 minutes ago)
VFR
Wind Visibility
160° at 7 knots 10 miles
Clouds
  • Clear skies
Temperature Dewpoint
36°C / 97°F -13°C / 9°F
Humidity Altimeter Pressure
4% 29.66" Hg 1004 hPa